Time;durP1;ratioP1;P1;durP2;ratioP2;P2;SDS_P1;SDS_P2;PMS_P1;PMS_P2;Temp;Humidity;BMP_temperature;BMP_pressure;BME280_temperature;BME280_humidity;BME280_pressure;Samples;Min_cycle;Max_cycle;Signal;HPM_P1;HPM_P2
2020/12/11 00:04:21;;;;;;;29.67;23.30;;;;;;;0.17;100.00;99791.98;3602363;82;25742;-68
2020/12/11 00:09:22;;;;;;;33.80;24.43;;;;;;;0.22;100.00;99787.16;3602352;82;25818;-67
2020/12/11 00:14:23;;;;;;;29.53;23.80;;;;;;;0.20;100.00;99795.91;3602466;82;25758;-74
2020/12/11 00:19:24;;;;;;;34.03;23.80;;;;;;;0.22;100.00;99795.02;3602345;82;25965;-68
2020/12/11 00:24:26;;;;;;;27.70;21.33;;;;;;;0.17;100.00;99797.23;3602524;82;25767;-74
2020/12/11 00:29:27;;;;;;;26.43;20.63;;;;;;;0.19;100.00;99797.64;3602766;81;25721;-73
2020/12/11 00:34:28;;;;;;;26.73;20.37;;;;;;;0.20;100.00;99798.53;3602004;81;34115;-73
2020/12/11 00:39:29;;;;;;;28.80;23.00;;;;;;;0.20;100.00;99803.78;3602458;82;25762;-73
2020/12/11 00:44:30;;;;;;;37.13;24.23;;;;;;;0.20;100.00;99802.47;3597363;82;34897;-74
2020/12/11 00:49:32;;;;;;;30.63;22.73;;;;;;;0.23;100.00;99815.53;3569953;83;35063;-74
2020/12/11 00:54:33;;;;;;;29.30;22.90;;;;;;;0.26;100.00;99816.38;3569989;83;30138;-74
2020/12/11 00:59:34;;;;;;;29.60;22.53;;;;;;;0.30;100.00;99823.78;3569922;83;34057;-74
2020/12/11 01:04:35;;;;;;;32.27;24.97;;;;;;;0.28;100.00;99821.64;3569870;83;34948;-73
2020/12/11 01:09:36;;;;;;;29.97;23.47;;;;;;;0.25;100.00;99824.27;3569898;83;25811;-74
2020/12/11 01:14:37;;;;;;;26.87;22.30;;;;;;;0.27;100.00;99821.20;3570159;83;35415;-74
2020/12/11 01:19:37;;;;;;;27.83;22.43;;;;;;;0.34;100.00;99821.59;3569892;83;27355;-74
2020/12/11 01:24:39;;;;;;;32.67;24.37;;;;;;;0.36;100.00;99817.18;3569813;83;27797;-73
2020/12/11 01:29:40;;;;;;;31.33;24.47;;;;;;;0.35;100.00;99819.41;3569581;83;53188;-74
2020/12/11 01:34:41;;;;;;;28.13;22.00;;;;;;;0.30;100.00;99822.05;3569790;83;28224;-73
2020/12/11 01:39:42;;;;;;;31.53;22.93;;;;;;;0.33;100.00;99821.16;3569889;81;25747;-73
2020/12/11 01:44:50;;;;;;;31.50;24.57;;;;;;;0.40;100.00;99828.09;3569706;83;26303;-74
2020/12/11 01:49:53;;;;;;;32.73;25.03;;;;;;;0.43;100.00;99817.56;3570104;83;34910;-74
2020/12/11 01:54:54;;;;;;;32.97;24.20;;;;;;;0.34;100.00;99822.02;3569852;83;35019;-74
2020/12/11 01:59:58;;;;;;;31.90;21.97;;;;;;;0.32;100.00;99816.79;3569865;81;30088;-74
2020/12/11 02:04:59;;;;;;;32.97;24.23;;;;;;;0.36;100.00;99806.70;3569908;81;35333;-75
2020/12/11 02:10:00;;;;;;;32.20;24.53;;;;;;;0.43;100.00;99808.39;3570295;83;28720;-74
2020/12/11 02:15:01;;;;;;;33.83;26.42;;;;;;;0.37;100.00;99817.62;3570279;83;28743;-73
2020/12/11 02:20:04;;;;;;;33.67;25.20;;;;;;;0.32;100.00;99811.55;3570162;83;25831;-74
2020/12/11 02:25:05;;;;;;;32.97;23.67;;;;;;;0.32;100.00;99810.23;3570125;83;35411;-73
2020/12/11 02:30:06;;;;;;;29.83;23.40;;;;;;;0.33;100.00;99806.73;3570123;83;28126;-73
2020/12/11 02:35:07;;;;;;;31.50;23.90;;;;;;;0.40;100.00;99807.12;3570121;83;28164;-74
2020/12/11 02:40:08;;;;;;;32.87;23.50;;;;;;;0.39;100.00;99790.95;3570186;81;27208;-74
2020/12/11 02:45:09;;;;;;;31.57;23.73;;;;;;;0.38;100.00;99797.53;3575167;81;28185;-74
2020/12/11 02:50:10;;;;;;;27.23;22.77;;;;;;;0.36;100.00;99780.47;3603026;81;25797;-74
2020/12/11 02:55:13;;;;;;;31.47;22.73;;;;;;;0.44;100.00;99777.81;3603129;82;25736;-74
2020/12/11 03:00:14;;;;;;;31.37;24.13;;;;;;;0.42;100.00;99777.80;3602533;82;33383;-73
2020/12/11 03:05:15;;;;;;;30.07;24.13;;;;;;;0.45;100.00;99773.84;3602756;82;28659;-74
2020/12/11 03:10:16;;;;;;;26.00;21.97;;;;;;;0.41;100.00;99769.53;3602553;82;25853;-74
2020/12/11 03:15:17;;;;;;;27.10;20.63;;;;;;;0.40;100.00;99778.27;3602504;81;25869;-74
2020/12/11 03:20:22;;;;;;;27.50;22.33;;;;;;;0.43;100.00;99769.05;3602656;81;25779;-68
2020/12/11 03:25:20;;;;;;;26.40;21.10;;;;;;;0.53;100.00;99774.23;3602142;81;27209;-74
2020/12/11 03:30:22;;;;;;;29.50;23.52;;;;;;;0.43;100.00;99776.06;3602719;82;26246;-74
2020/12/11 03:35:23;;;;;;;27.97;20.90;;;;;;;0.42;100.00;99783.50;3602525;81;25690;-74
2020/12/11 03:40:24;;;;;;;24.63;19.60;;;;;;;0.45;100.00;99782.17;3602497;81;26240;-73
2020/12/11 03:45:24;;;;;;;24.35;20.00;;;;;;;0.49;100.00;99779.94;3602407;81;25821;-73
2020/12/11 03:50:25;;;;;;;27.70;21.33;;;;;;;0.52;100.00;99788.22;3602605;82;25747;-73
2020/12/11 03:55:26;;;;;;;26.00;20.07;;;;;;;0.48;100.00;99792.63;3602579;81;25777;-73
2020/12/11 04:00:27;;;;;;;23.00;19.13;;;;;;;0.44;100.00;99795.70;3602542;82;25786;-75
2020/12/11 04:05:28;;;;;;;26.47;20.57;;;;;;;0.45;100.00;99801.39;3602871;82;33117;-74
2020/12/11 04:10:29;;;;;;;24.83;20.00;;;;;;;0.55;100.00;99798.70;3602518;82;25745;-74
2020/12/11 04:15:30;;;;;;;28.57;21.43;;;;;;;0.52;100.00;99803.95;3602440;82;25848;-73
2020/12/11 04:20:30;;;;;;;25.83;19.80;;;;;;;0.49;100.00;99814.48;3602450;81;25694;-68
2020/12/11 04:25:31;;;;;;;22.77;17.83;;;;;;;0.47;100.00;99807.92;3602297;81;26278;-67
2020/12/11 04:30:32;;;;;;;26.20;20.03;;;;;;;0.48;100.00;99801.80;3602414;82;25826;-67
2020/12/11 04:35:34;;;;;;;26.97;19.67;;;;;;;0.52;100.00;99807.89;3602353;82;25993;-68
2020/12/11 04:40:35;;;;;;;24.03;19.47;;;;;;;0.54;100.00;99815.31;3602314;81;25793;-74
2020/12/11 04:45:41;;;;;;;25.53;17.90;;;;;;;0.48;100.00;99816.22;3598453;81;25792;-73
2020/12/11 04:50:43;;;;;;;29.05;20.05;;;;;;;0.47;100.00;99816.67;3570140;83;25937;-75
2020/12/11 04:55:44;;;;;;;28.17;21.20;;;;;;;0.53;100.00;99809.63;3569894;83;33041;-74
2020/12/11 05:00:46;;;;;;;26.83;20.70;;;;;;;0.53;100.00;99803.08;3576566;81;26320;-73
2020/12/11 05:05:46;;;;;;;26.37;19.83;;;;;;;0.47;100.00;99802.67;3570663;82;25807;-73
2020/12/11 05:10:48;;;;;;;27.42;20.10;;;;;;;0.43;100.00;99808.39;3578475;82;25818;-74
2020/12/11 05:16:08;;;;;;;26.10;19.27;;;;;;;0.49;100.00;99816.66;3574159;82;25811;-73
2020/12/11 05:21:21;;;;;;;29.70;20.63;;;;;;;0.53;100.00;99818.36;3573439;82;33070;-75
2020/12/11 05:26:22;;;;;;;27.07;19.73;;;;;;;0.48;100.00;99814.91;3575963;82;32495;-74
2020/12/11 05:31:25;;;;;;;29.03;20.23;;;;;;;0.49;100.00;99821.05;3574650;82;25890;-75
2020/12/11 05:36:26;;;;;;;29.40;19.83;;;;;;;0.44;100.00;99820.63;3574132;82;32365;-73
2020/12/11 05:41:36;;;;;;;27.20;19.10;;;;;;;0.51;100.00;99828.44;3574700;82;25833;-75
2020/12/11 05:46:37;;;;;;;29.20;20.10;;;;;;;0.52;100.00;99831.49;3591751;81;32545;-69
2020/12/11 05:51:38;;;;;;;28.67;19.67;;;;;;;0.53;100.00;99834.09;3642380;79;36187;-69
2020/12/11 05:56:39;;;;;;;27.80;19.27;;;;;;;0.47;100.00;99833.73;3653795;80;26838;-69
2020/12/11 06:01:40;;;;;;;30.63;20.43;;;;;;;0.52;100.00;99835.42;3653960;80;27843;-70
2020/12/11 06:06:44;;;;;;;28.00;20.27;;;;;;;0.59;100.00;99838.43;3653906;81;25837;-68
2020/12/11 06:11:47;;;;;;;33.80;21.90;;;;;;;0.59;100.00;99834.50;3653703;81;32553;-69
2020/12/11 06:16:52;;;;;;;26.23;19.60;;;;;;;0.53;100.00;99843.73;3653483;80;32545;-67
2020/12/11 06:21:53;;;;;;;31.50;20.43;;;;;;;0.54;100.00;99840.23;3653789;80;32553;-68
2020/12/11 06:26:59;;;;;;;27.97;20.23;;;;;;;0.58;100.00;99838.89;3653882;81;25775;-70
2020/12/11 06:32:01;;;;;;;29.13;19.80;;;;;;;0.59;100.00;99833.19;3653832;80;32613;-68
2020/12/11 06:37:03;;;;;;;29.17;21.03;;;;;;;0.54;100.00;99842.85;3653926;81;32640;-75
2020/12/11 06:42:06;;;;;;;27.87;19.27;;;;;;;0.55;100.00;99849.84;3653872;81;32491;-76
2020/12/11 06:47:10;;;;;;;26.97;20.27;;;;;;;0.56;100.00;99851.59;3653888;80;33080;-74
2020/12/11 06:52:12;;;;;;;27.60;21.13;;;;;;;0.55;100.00;99847.22;3653638;80;32511;-76
2020/12/11 06:57:19;;;;;;;30.17;21.07;;;;;;;0.51;100.00;99850.73;3654050;81;32568;-76
2020/12/11 07:02:20;;;;;;;28.87;21.77;;;;;;;0.51;100.00;99844.17;3650729;80;32956;-76
2020/12/11 07:07:26;;;;;;;28.87;20.43;;;;;;;0.45;100.00;99843.34;3654806;81;25725;-76
2020/12/11 07:12:34;;;;;;;30.77;21.20;;;;;;;0.45;100.00;99851.22;3653528;80;32457;-73
2020/12/11 07:17:35;;;;;;;34.93;22.97;;;;;;;0.56;100.00;99850.28;3654330;80;33066;-75
2020/12/11 07:22:36;;;;;;;33.07;22.57;;;;;;;0.66;100.00;99853.70;3654243;80;25759;-76
2020/12/11 07:27:37;;;;;;;39.27;24.17;;;;;;;0.51;100.00;99850.73;3654135;80;25854;-75
2020/12/11 07:32:39;;;;;;;38.90;23.60;;;;;;;0.50;100.00;99863.41;3654161;80;25843;-75
2020/12/11 07:37:51;;;;;;;38.87;25.37;;;;;;;0.55;100.00;99860.34;3653990;80;33031;-76
2020/12/11 07:42:52;;;;;;;39.33;25.50;;;;;;;0.68;100.00;99864.59;3654021;80;32510;-76
2020/12/11 07:47:54;;;;;;;49.70;28.00;;;;;;;0.67;100.00;99858.92;3653919;80;32510;-76
2020/12/11 07:52:57;;;;;;;43.40;24.97;;;;;;;0.67;100.00;99857.61;3653984;80;32659;-76
2020/12/11 07:58:00;;;;;;;43.57;25.73;;;;;;;0.66;100.00;99853.70;3654163;80;32493;-76
2020/12/11 08:03:07;;;;;;;44.43;26.13;;;;;;;0.70;100.00;99841.86;3653984;80;32487;-75
2020/12/11 08:08:07;;;;;;;;;;;;;;;0.64;100.00;99843.19;3656486;80;26249;-76
2020/12/11 08:13:15;;;;;;;52.23;29.93;;;;;;;0.63;100.00;99851.52;3654137;80;25808;-76
2020/12/11 08:18:20;;;;;;;44.90;26.70;;;;;;;0.67;100.00;99844.48;3660624;81;33108;-75
2020/12/11 08:23:37;;;;;;;42.80;26.02;;;;;;;0.71;100.00;99840.09;3654228;80;25767;-68
2020/12/11 08:28:39;;;;;;;46.57;29.07;;;;;;;0.81;100.00;99844.81;3653433;80;32517;-69
2020/12/11 08:33:40;;;;;;;53.93;31.43;;;;;;;0.88;100.00;99847.81;3654382;81;33009;-75
2020/12/11 08:38:41;;;;;;;52.50;29.77;;;;;;;0.83;100.00;99856.17;3654257;80;25718;-75
2020/12/11 08:43:45;;;;;;;47.08;26.55;;;;;;;0.83;100.00;99857.48;3654575;80;25756;-77
2020/12/11 08:54:10;;;;;;;44.87;26.63;;;;;;;0.86;100.00;99837.34;3668726;80;25813;-75
2020/12/11 08:59:12;;;;;;;46.73;26.27;;;;;;;0.86;100.00;99831.20;3668427;80;32531;-75
2020/12/11 09:04:13;;;;;;;44.60;27.03;;;;;;;0.85;100.00;99830.77;3668209;80;32461;-76
2020/12/11 09:09:14;;;;;;;41.10;23.83;;;;;;;0.88;100.00;99823.73;3667887;80;26806;-76
2020/12/11 09:14:15;;;;;;;41.87;26.10;;;;;;;0.97;100.00;99821.48;3667538;80;25801;-76
2020/12/11 09:19:17;;;;;;;45.97;25.83;;;;;;;1.05;100.00;99826.64;3667549;80;25822;-76
2020/12/11 09:24:18;;;;;;;36.87;22.97;;;;;;;1.06;100.00;99824.00;3667506;80;25739;-75
2020/12/11 09:29:29;;;;;;;44.70;25.87;;;;;;;1.02;100.00;99810.49;3667470;80;25798;-76
2020/12/11 09:34:32;;;;;;;41.93;25.07;;;;;;;0.95;100.00;99810.13;3667088;80;33005;-75
2020/12/11 09:39:31;;;;;;;38.93;24.27;;;;;;;0.94;100.00;99804.45;3667424;80;32598;-76
2020/12/11 09:55:11;;;;;;;49.30;29.93;;;;;;;1.03;100.00;99797.80;3654224;81;32502;-75
2020/12/11 10:00:13;;;;;;;44.40;28.17;;;;;;;1.07;100.00;99789.45;3654083;80;33529;-75
2020/12/11 10:05:14;;;;;;;42.27;25.70;;;;;;;1.13;100.00;99788.52;3654240;80;32887;-77
2020/12/11 10:10:17;;;;;;;47.87;28.53;;;;;;;1.04;100.00;99781.17;3654536;81;32884;-76
2020/12/11 10:15:22;;;;;;;44.87;28.07;;;;;;;1.26;100.00;99773.05;3654272;80;32480;-76
2020/12/11 10:20:23;;;;;;;;;;;;;;;1.26;100.00;99768.66;3656718;80;25835;-76
2020/12/11 10:25:24;;;;;;;50.90;29.27;;;;;;;1.15;100.00;99780.16;3653934;81;25731;-69
2020/12/11 10:30:25;;;;;;;51.83;31.27;;;;;;;1.18;100.00;99782.77;3654196;80;26328;-68
2020/12/11 10:35:26;;;;;;;48.57;30.23;;;;;;;1.14;100.00;99777.11;3654174;80;25843;-71
2020/12/11 10:40:27;;;;;;;50.33;29.00;;;;;;;1.27;100.00;99780.02;3654381;81;25786;-76
2020/12/11 10:45:28;;;;;;;48.73;28.73;;;;;;;1.25;100.00;99771.30;3654469;80;25833;-75
2020/12/11 10:50:31;;;;;;;48.77;28.30;;;;;;;1.30;100.00;99769.48;3663462;80;25743;-75
2020/12/11 10:55:32;;;;;;;44.13;26.93;;;;;;;1.18;100.00;99769.18;3667784;80;25798;-75
2020/12/11 11:00:33;;;;;;;39.77;25.90;;;;;;;1.18;100.00;99759.14;3667938;80;25757;-76
2020/12/11 11:05:34;;;;;;;44.10;27.45;;;;;;;1.21;100.00;99759.97;3668196;80;25920;-75
2020/12/11 11:10:42;;;;;;;44.37;27.50;;;;;;;1.21;100.00;99763.02;3670246;80;25806;-75
2020/12/11 11:15:44;;;;;;;47.30;28.33;;;;;;;1.16;100.00;99759.16;3667456;80;25843;-76
2020/12/11 11:26:31;;;;;;;39.27;26.17;;;;;;;1.11;100.00;99754.39;3419964;86;33092;-76
2020/12/11 11:31:22;;;;;;;42.37;27.07;;;;;;;1.24;100.00;99756.44;3611007;80;32871;-77
2020/12/11 11:36:26;;;;;;;43.40;27.20;;;;;;;1.24;100.00;99750.72;3668189;80;27202;-76
2020/12/11 11:41:46;;;;;;;50.93;28.77;;;;;;;1.21;100.00;99747.27;3667829;80;32981;-75
2020/12/11 11:46:51;;;;;;;48.60;28.57;;;;;;;1.22;100.00;99749.02;3667738;80;32766;-76
2020/12/11 11:57:09;;;;;;;51.43;28.73;;;;;;;1.09;100.00;99745.23;3654153;80;33038;-75
2020/12/11 12:02:11;;;;;;;50.63;28.13;;;;;;;1.08;100.00;99738.23;3654107;80;25852;-76
2020/12/11 12:07:11;;;;;;;58.67;30.10;;;;;;;1.13;100.00;99734.70;3654291;81;26253;-76
2020/12/11 12:12:12;;;;;;;50.57;28.23;;;;;;;1.04;100.00;99733.92;3654101;80;25828;-76
2020/12/11 12:17:15;;;;;;;54.10;30.60;;;;;;;1.13;100.00;99729.45;3654159;80;25786;-76
2020/12/11 12:22:41;;;;;;;55.40;30.17;;;;;;;1.16;100.00;99725.03;3654082;80;32486;-75
2020/12/11 12:33:23;;;;;;;67.80;33.80;;;;;;;1.23;100.00;99720.56;3654026;81;32675;-76
2020/12/11 12:37:53;;;;;;;64.83;32.37;;;;;;;1.18;100.00;99714.50;3651005;81;32594;-76
2020/12/11 12:43:54;;;;;;;66.33;34.03;;;;;;;1.29;100.00;99713.91;3654090;80;33062;-77
2020/12/11 12:48:06;;;;;;;72.67;34.53;;;;;;;1.21;100.00;99716.65;3617400;80;32537;-69
2020/12/11 12:53:07;;;;;;;82.63;36.30;;;;;;;1.32;100.00;99719.14;3654177;81;26329;-76
2020/12/11 12:58:11;;;;;;;70.63;33.53;;;;;;;1.30;100.00;99717.42;3654178;80;26313;-75
2020/12/11 13:03:27;;;;;;;74.70;35.50;;;;;;;1.23;100.00;99720.56;3653895;80;33051;-75
2020/12/11 13:08:14;;;;;;;65.53;32.13;;;;;;;1.21;100.00;99723.21;3651710;80;32528;-75
2020/12/11 13:13:15;;;;;;;65.27;32.43;;;;;;;1.25;100.00;99710.91;3654070;80;26108;-76
2020/12/11 13:18:17;;;;;;;68.17;35.07;;;;;;;1.35;100.00;99695.44;3654100;80;26829;-76
2020/12/11 13:28:19;;;;;;;62.47;33.60;;;;;;;1.18;100.00;99701.38;3653992;80;25759;-76
2020/12/11 13:33:19;;;;;;;58.40;32.13;;;;;;;1.17;100.00;99696.55;3654161;80;25739;-75
2020/12/11 13:38:20;;;;;;;74.40;35.57;;;;;;;1.19;100.00;99706.59;3653976;80;25759;-75
2020/12/11 13:43:21;;;;;;;56.27;31.77;;;;;;;1.31;100.00;99705.58;3653778;81;25754;-75
2020/12/11 13:48:22;;;;;;;57.50;30.97;;;;;;;1.24;100.00;99709.17;3653917;80;26261;-75
2020/12/11 13:53:23;;;;;;;65.00;32.53;;;;;;;1.23;100.00;99699.55;3653936;80;26405;-76
2020/12/11 13:58:24;;;;;;;62.80;33.80;;;;;;;1.24;100.00;99698.20;3654011;80;25799;-76
2020/12/11 14:03:25;;;;;;;56.00;30.00;;;;;;;1.23;100.00;99699.55;3653950;80;25803;-76
2020/12/11 14:08:26;;;;;;;50.80;31.57;;;;;;;1.21;100.00;99692.12;3654590;81;26234;-75
2020/12/11 14:13:29;;;;;;;51.93;30.47;;;;;;;1.28;100.00;99680.66;3654281;80;27554;-75
2020/12/11 14:18:46;;;;;;;54.37;30.37;;;;;;;1.40;100.00;99673.95;3654452;80;27501;-75
2020/12/11 14:23:42;;;;;;;46.20;27.57;;;;;;;1.40;100.00;99675.69;3653678;80;26750;-69
2020/12/11 14:28:43;;;;;;;46.87;26.90;;;;;;;1.34;100.00;99675.31;3654272;80;25993;-75
2020/12/11 14:33:44;;;;;;;38.27;25.43;;;;;;;1.41;100.00;99678.28;3654419;80;25936;-75
2020/12/11 14:43:45;;;;;;;40.30;25.03;;;;;;;1.49;100.00;99676.00;3654166;80;25785;-68
2020/12/11 14:48:48;;;;;;;43.37;26.30;;;;;;;1.35;100.00;99673.58;3655175;80;26055;-68
2020/12/11 14:53:49;;;;;;;36.33;23.03;;;;;;;1.31;100.00;99673.18;3667656;80;26248;-69
2020/12/11 14:58:51;;;;;;;34.67;23.53;;;;;;;1.40;100.00;99678.31;3667637;80;26325;-75
2020/12/11 15:03:52;;;;;;;37.73;22.67;;;;;;;1.37;100.00;99666.09;3667591;80;25953;-75
2020/12/11 15:08:54;;;;;;;33.87;23.23;;;;;;;1.43;100.00;99666.01;3667766;80;25785;-76
2020/12/11 15:13:55;;;;;;;34.23;22.97;;;;;;;1.36;100.00;99670.92;3667699;80;25806;-75
2020/12/11 15:18:56;;;;;;;33.97;22.43;;;;;;;1.34;100.00;99675.31;3667903;80;25739;-76
2020/12/11 15:23:58;;;;;;;38.50;24.83;;;;;;;1.41;100.00;99667.78;3667641;80;25821;-75
2020/12/11 15:28:59;;;;;;;33.03;22.87;;;;;;;1.52;100.00;99666.77;3667750;80;25759;-77
2020/12/11 15:34:01;;;;;;;38.53;25.10;;;;;;;1.41;100.00;99665.16;3667712;80;26053;-77
2020/12/11 15:39:03;;;;;;;33.43;23.03;;;;;;;1.40;100.00;99659.50;3667705;80;25764;-76
2020/12/11 15:44:04;;;;;;;33.70;23.10;;;;;;;1.42;100.00;99660.33;3667651;80;25770;-76
2020/12/11 15:49:05;;;;;;;38.33;25.50;;;;;;;1.36;100.00;99656.48;3666794;80;25778;-75
2020/12/11 15:54:06;;;;;;;40.10;25.12;;;;;;;1.47;100.00;99661.58;3654440;80;25748;-75
2020/12/11 15:59:07;;;;;;;43.80;27.53;;;;;;;1.40;100.00;99652.94;3654475;81;25798;-77
2020/12/11 16:04:08;;;;;;;37.83;24.73;;;;;;;1.34;100.00;99647.75;3654296;81;26184;-76
2020/12/11 16:09:10;;;;;;;41.83;25.97;;;;;;;1.38;100.00;99646.83;3654339;80;26350;-75
2020/12/11 16:14:11;;;;;;;36.83;24.23;;;;;;;1.48;100.00;99650.19;3654182;80;25774;-75
2020/12/11 16:19:12;;;;;;;41.50;25.83;;;;;;;1.34;100.00;99645.12;3654202;80;25770;-76
2020/12/11 16:24:13;;;;;;;43.90;27.13;;;;;;;1.32;100.00;99646.92;3654174;81;25801;-74
2020/12/11 16:29:14;;;;;;;72.83;45.67;;;;;;;1.40;100.00;99649.42;3654251;80;26058;-76
2020/12/11 16:34:15;;;;;;;42.47;26.57;;;;;;;1.32;100.00;99641.67;3654260;80;25818;-77
2020/12/11 16:39:17;;;;;;;45.00;27.63;;;;;;;1.31;100.00;99633.36;3654412;81;26012;-75
2020/12/11 16:44:25;;;;;;;42.77;27.73;;;;;;;1.34;100.00;99637.70;3655032;80;25754;-76
2020/12/11 16:49:27;;;;;;;42.07;26.00;;;;;;;1.31;100.00;99632.05;3651382;80;25751;-76
2020/12/11 16:54:24;;;;;;;37.43;24.73;;;;;;;1.31;100.00;99632.05;3652968;80;26742;-68
2020/12/11 16:59:34;;;;;;;40.27;24.70;;;;;;;1.37;100.00;99625.39;3653912;81;26012;-68
2020/12/11 17:04:42;;;;;;;44.93;26.97;;;;;;;1.22;100.00;99625.61;3652673;80;26209;-70
2020/12/11 17:09:30;;;;;;;40.07;25.27;;;;;;;1.19;100.00;99616.48;3652177;80;26907;-76
2020/12/11 17:14:31;;;;;;;40.10;24.50;;;;;;;1.26;100.00;99619.44;3655947;80;25711;-75
2020/12/11 17:19:35;;;;;;;41.20;25.77;;;;;;;1.26;100.00;99618.13;3653948;80;25820;-69
2020/12/11 17:24:36;;;;;;;37.17;24.33;;;;;;;1.23;100.00;99620.78;3653790;81;28341;-69
2020/12/11 17:29:38;;;;;;;38.83;24.63;;;;;;;1.20;100.00;99622.16;3653884;81;26055;-69
2020/12/11 17:39:47;;;;;;;42.63;25.43;;;;;;;1.17;100.00;99613.00;3654053;80;26082;-77
2020/12/11 17:44:48;;;;;;;37.43;24.27;;;;;;;1.19;100.00;99599.41;3653785;80;26230;-69
2020/12/11 17:49:49;;;;;;;38.40;25.50;;;;;;;1.36;100.00;99594.77;3654786;80;25746;-75
2020/12/11 17:54:50;;;;;;;44.10;25.77;;;;;;;1.35;100.00;99585.60;3667374;80;26151;-69
2020/12/11 17:59:51;;;;;;;38.33;23.73;;;;;;;1.38;100.00;99578.98;3667358;80;26140;-78
2020/12/11 18:04:52;;;;;;;42.10;25.80;;;;;;;1.37;100.00;99589.09;3667307;80;25731;-75
2020/12/11 18:09:53;;;;;;;42.53;26.80;;;;;;;1.52;100.00;99595.84;3667661;80;25766;-76
2020/12/11 18:14:54;;;;;;;45.00;26.10;;;;;;;1.50;100.00;99588.42;3667547;80;25942;-76
2020/12/11 18:20:00;;;;;;;43.13;25.90;;;;;;;1.51;100.00;99586.23;3667644;80;25744;-77
2020/12/11 18:24:58;;;;;;;41.03;24.27;;;;;;;1.45;100.00;99583.24;3665010;80;25674;-75
2020/12/11 18:30:02;;;;;;;40.43;24.77;;;;;;;1.40;100.00;99585.08;3667329;80;25690;-76
2020/12/11 18:35:03;;;;;;;43.97;25.07;;;;;;;1.49;100.00;99574.44;3667308;80;26087;-76
2020/12/11 18:40:05;;;;;;;40.53;25.60;;;;;;;1.48;100.00;99583.20;3667472;80;25811;-78
2020/12/11 18:45:06;;;;;;;48.37;26.93;;;;;;;1.41;100.00;99575.86;3667431;80;27457;-76
2020/12/11 18:50:07;;;;;;;46.13;26.13;;;;;;;1.42;100.00;99576.74;3666607;80;25742;-74
2020/12/11 18:55:14;;;;;;;50.80;27.30;;;;;;;1.47;100.00;99576.22;3650875;81;25791;-75
2020/12/11 19:00:11;;;;;;;53.30;28.33;;;;;;;1.47;100.00;99581.47;3650394;81;26121;-76
2020/12/11 19:05:12;;;;;;;53.67;30.03;;;;;;;1.41;100.00;99590.30;3650974;81;25750;-76
2020/12/11 19:10:13;;;;;;;53.90;30.37;;;;;;;1.40;100.00;99583.34;3650991;80;25775;-75
2020/12/11 19:15:15;;;;;;;51.10;27.10;;;;;;;1.47;100.00;99585.41;3650870;80;26259;-76
2020/12/11 19:20:16;;;;;;;50.83;27.50;;;;;;;1.52;100.00;99584.88;3650841;80;26253;-76
2020/12/11 19:25:17;;;;;;;46.97;26.43;;;;;;;1.60;100.00;99580.83;3650627;81;25787;-74
2020/12/11 19:30:18;;;;;;;55.40;28.93;;;;;;;1.61;100.00;99577.32;3650762;80;26015;-75
2020/12/11 19:35:20;;;;;;;47.60;25.03;;;;;;;1.53;100.00;99573.48;3650655;80;26055;-76
2020/12/11 19:40:21;;;;;;;47.07;25.57;;;;;;;1.53;100.00;99571.32;3650740;81;25793;-75
2020/12/11 19:45:22;;;;;;;50.27;26.43;;;;;;;1.56;100.00;99568.63;3650845;80;25985;-76
2020/12/11 19:50:23;;;;;;;50.47;25.83;;;;;;;1.57;100.00;99562.48;3650636;80;25766;-76
2020/12/11 19:55:25;;;;;;;49.73;26.27;;;;;;;1.56;100.00;99562.94;3650731;80;25740;-76
2020/12/11 20:00:26;;;;;;;43.37;24.20;;;;;;;1.54;100.00;99566.48;3650737;81;26075;-78
2020/12/11 20:05:28;;;;;;;42.60;24.23;;;;;;;1.54;100.00;99553.36;3650706;80;26066;-76
2020/12/11 20:10:30;;;;;;;47.27;26.97;;;;;;;1.60;100.00;99559.81;3651196;80;25745;-77
2020/12/11 20:15:31;;;;;;;51.70;25.37;;;;;;;1.59;100.00;99554.14;3615863;80;25825;-74
2020/12/11 20:20:32;;;;;;;46.40;24.82;;;;;;;1.53;100.00;99545.05;3580890;82;25828;-76
2020/12/11 20:25:35;;;;;;;45.07;24.40;;;;;;;1.51;100.00;99540.26;3621251;82;26155;-74
2020/12/11 20:30:36;;;;;;;43.10;25.63;;;;;;;1.54;100.00;99527.94;3557213;82;26064;-75
2020/12/11 20:35:37;;;;;;;41.37;25.30;;;;;;;1.65;100.00;99523.81;3542685;81;25768;-76
2020/12/11 20:40:38;;;;;;;47.27;24.63;;;;;;;1.64;100.00;99518.59;3527795;83;25868;-74
2020/12/11 20:45:42;;;;;;;36.80;22.17;;;;;;;1.56;100.00;99504.27;3591106;81;25879;-75
2020/12/11 20:50:42;;;;;;;38.97;22.13;;;;;;;1.62;100.00;99504.61;3647556;80;26414;-74
2020/12/11 20:55:43;;;;;;;36.03;20.13;;;;;;;1.69;100.00;99491.78;3592686;81;26274;-74
2020/12/11 21:00:44;;;;;;;36.50;22.30;;;;;;;1.67;100.00;99497.50;3602352;80;26508;-75
2020/12/11 21:05:46;;;;;;;33.70;19.60;;;;;;;1.65;100.00;99489.66;3597704;81;25770;-75
2020/12/11 21:10:46;;;;;;;29.60;17.50;;;;;;;1.69;100.00;99487.84;3588368;81;26113;-75
2020/12/11 21:15:47;;;;;;;32.67;22.67;;;;;;;1.75;100.00;99482.05;3588550;81;26159;-74
2020/12/11 21:20:49;;;;;;;31.97;18.80;;;;;;;1.79;100.00;99481.97;3596281;81;25831;-76
2020/12/11 21:25:50;;;;;;;23.37;16.23;;;;;;;1.80;100.00;99485.02;3617319;81;26023;-74
2020/12/11 21:30:54;;;;;;;22.87;16.17;;;;;;;1.80;100.00;99485.02;3596691;80;25730;-75
2020/12/11 21:35:54;;;;;;;26.90;17.20;;;;;;;1.82;100.00;99483.24;3602905;81;25757;-75
2020/12/11 21:40:56;;;;;;;26.17;15.77;;;;;;;1.83;100.00;99471.84;3592144;81;26427;-75
2020/12/11 21:45:57;;;;;;;19.17;14.07;;;;;;;1.79;100.00;99464.89;3607688;81;27923;-75
2020/12/11 21:50:58;;;;;;;21.70;14.43;;;;;;;1.82;100.00;99466.16;3597052;80;37253;-75
2020/12/11 21:55:59;;;;;;;21.63;14.33;;;;;;;1.91;100.00;99470.79;3569312;83;25729;-76
2020/12/11 22:01:00;;;;;;;24.20;15.77;;;;;;;1.94;100.00;99467.69;3569560;83;25871;-76
2020/12/11 22:06:01;;;;;;;21.60;14.17;;;;;;;1.96;100.00;99456.67;3530334;82;25833;-76
2020/12/11 22:11:02;;;;;;;21.05;14.00;;;;;;;1.94;100.00;99454.55;3509665;84;25825;-76
2020/12/11 22:16:04;;;;;;;18.63;13.87;;;;;;;2.04;100.00;99464.81;3510539;84;25813;-76
2020/12/11 22:21:05;;;;;;;20.07;14.30;;;;;;;2.08;100.00;99463.00;3508756;84;26022;-76
2020/12/11 22:26:06;;;;;;;22.10;15.07;;;;;;;2.02;100.00;99456.55;3508796;84;26315;-77
2020/12/11 22:31:08;;;;;;;19.73;14.17;;;;;;;1.99;100.00;99454.00;3509220;84;25824;-77
2020/12/11 22:36:09;;;;;;;18.23;13.03;;;;;;;2.02;100.00;99448.23;3509332;84;25783;-77
2020/12/11 22:41:10;;;;;;;18.30;14.33;;;;;;;2.15;100.00;99450.14;3509710;84;26213;-77
2020/12/11 22:46:11;;;;;;;17.30;13.57;;;;;;;2.14;100.00;99448.44;3509622;84;25748;-77
2020/12/11 22:51:21;;;;;;;19.07;14.07;;;;;;;2.13;100.00;99452.39;3509587;84;25730;-78
2020/12/11 22:56:22;;;;;;;19.80;13.47;;;;;;;2.17;100.00;99452.77;3509700;84;27455;-77
2020/12/11 23:01:23;;;;;;;18.17;13.07;;;;;;;2.26;100.00;99447.75;3509763;84;25755;-77
2020/12/11 23:06:25;;;;;;;18.63;13.43;;;;;;;2.27;100.00;99441.14;3509648;84;25764;-76
2020/12/11 23:11:26;;;;;;;16.80;12.57;;;;;;;2.21;100.00;99439.95;3509786;84;25727;-77
2020/12/11 23:16:27;;;;;;;16.82;12.75;;;;;;;2.21;100.00;99436.89;3509679;84;25989;-75
2020/12/11 23:21:28;;;;;;;16.00;13.03;;;;;;;2.32;100.00;99437.98;3509784;84;25926;-77
2020/12/11 23:26:30;;;;;;;22.87;16.43;;;;;;;2.33;100.00;99433.11;3509644;84;25787;-77
2020/12/11 23:31:31;;;;;;;16.20;12.77;;;;;;;2.34;100.00;99426.10;3509559;84;25807;-76
2020/12/11 23:36:32;;;;;;;16.42;12.03;;;;;;;2.36;100.00;99423.84;3509575;84;25830;-77
2020/12/11 23:41:33;;;;;;;19.10;14.10;;;;;;;2.44;100.00;99416.24;3509556;84;25837;-76
2020/12/11 23:46:34;;;;;;;18.27;12.93;;;;;;;2.45;100.00;99417.52;3509443;84;26021;-77
2020/12/11 23:51:35;;;;;;;17.87;12.30;;;;;;;2.43;100.00;99421.08;3509326;84;25936;-76
2020/12/11 23:56:36;;;;;;;16.70;13.17;;;;;;;2.48;100.00;99415.26;3475168;85;26275;-76
